createdAt,value
2023-03-07T00:00:54.342Z,96929.69
2023-03-07T00:03:58.004Z,96927.78
2023-03-07T00:07:00.751Z,96921.47
2023-03-07T00:10:03.530Z,96921.53
2023-03-07T00:13:06.466Z,96928.16
2023-03-07T00:16:13.278Z,96916.16
2023-03-07T00:19:16.070Z,96926.69
2023-03-07T00:22:18.738Z,96910.56
2023-03-07T00:25:21.576Z,96920.03
2023-03-07T00:28:24.188Z,96912.69
2023-03-07T00:31:27.079Z,96916.03
2023-03-07T00:34:29.659Z,96915.59
2023-03-07T00:37:32.324Z,96914.75
2023-03-07T00:40:35.095Z,96904.78
2023-03-07T00:43:37.926Z,96917.47
2023-03-07T00:46:40.489Z,96910.44
2023-03-07T00:49:44.592Z,96901.56
2023-03-07T00:52:47.612Z,96892.88
2023-03-07T00:56:05.833Z,96895.66
2023-03-07T00:59:11.619Z,96895.06
2023-03-07T01:02:14.328Z,96892.97
2023-03-07T01:05:17.549Z,96883.44
2023-03-07T01:08:21.180Z,96881.78
2023-03-07T01:11:24.072Z,96878.94
2023-03-07T01:14:26.831Z,96874.91
2023-03-07T01:17:29.615Z,96871.34
2023-03-07T01:20:33.777Z,96874.97
2023-03-07T01:23:36.496Z,96872.25
2023-03-07T01:26:39.215Z,96867.31
2023-03-07T01:29:41.871Z,96865.09
2023-03-07T01:32:44.801Z,96868.81
2023-03-07T01:35:47.567Z,96864.03
2023-03-07T01:38:50.895Z,96864.88
2023-03-07T01:41:53.747Z,96872.25
2023-03-07T01:45:35.852Z,96858.66
2023-03-07T01:48:40.038Z,96862.38
2023-03-07T01:51:46.659Z,96862.59
2023-03-07T01:54:52.639Z,96861.72
2023-03-07T01:58:00.633Z,96854.81
2023-03-07T02:01:03.345Z,96861.56
2023-03-07T02:04:17.420Z,96862.00
2023-03-07T02:07:22.403Z,96859.09
2023-03-07T02:10:26.017Z,96847.59
2023-03-07T02:13:29.146Z,96842.28
2023-03-07T02:16:31.839Z,96849.63
2023-03-07T02:19:38.009Z,96848.28
2023-03-07T02:22:41.603Z,96842.75
2023-03-07T02:25:47.090Z,96835.63
2023-03-07T02:28:49.925Z,96847.72
2023-03-07T02:31:52.563Z,96841.31
2023-03-07T02:34:55.235Z,96846.91
2023-03-07T02:38:03.437Z,96846.38
2023-03-07T02:41:06.461Z,96852.47
2023-03-07T02:44:11.511Z,96860.06
2023-03-07T02:47:14.707Z,96853.91
2023-03-07T02:50:17.772Z,96853.25
2023-03-07T02:53:24.356Z,96855.53
2023-03-07T02:56:27.035Z,96856.28
2023-03-07T02:59:29.618Z,96857.00
2023-03-07T03:02:32.348Z,96844.22
2023-03-07T03:05:34.925Z,96854.31
2023-03-07T03:08:37.644Z,96857.69
2023-03-07T03:11:40.300Z,96840.41
2023-03-07T03:14:42.922Z,96845.38
2023-03-07T03:17:47.919Z,96848.16
2023-03-07T03:20:50.559Z,96850.84
2023-03-07T03:23:53.267Z,96854.13
2023-03-07T03:26:58.187Z,96844.16
2023-03-07T03:30:02.384Z,96849.19
2023-03-07T03:33:06.200Z,96841.78
2023-03-07T03:36:13.777Z,96843.44
2023-03-07T03:39:17.178Z,96845.94
2023-03-07T03:42:24.208Z,96838.69
2023-03-07T03:45:27.129Z,96842.09
2023-03-07T03:48:29.928Z,96845.94
2023-03-07T03:51:32.914Z,96845.72
2023-03-07T03:54:36.033Z,96848.56
2023-03-07T03:57:39.046Z,96840.75
2023-03-07T04:00:42.038Z,96852.31
2023-03-07T04:03:47.614Z,96847.16
2023-03-07T04:06:51.242Z,96858.88
2023-03-07T04:09:53.843Z,96852.31
2023-03-07T04:12:56.848Z,96855.75
2023-03-07T04:15:59.498Z,96854.94
2023-03-07T04:19:02.140Z,96858.25
2023-03-07T04:22:04.956Z,96852.28
2023-03-07T04:25:08.081Z,96871.84
2023-03-07T04:28:10.622Z,96857.00
2023-03-07T04:31:19.485Z,96863.91
2023-03-07T04:34:22.149Z,96858.78
2023-03-07T04:37:24.981Z,96860.47
2023-03-07T04:40:27.559Z,96855.63
2023-03-07T04:43:30.153Z,96854.91
2023-03-07T04:46:35.511Z,96854.19
2023-03-07T04:49:38.410Z,96862.31
2023-03-07T04:52:42.406Z,96854.75
2023-03-07T04:55:45.422Z,96849.28
2023-03-07T04:58:47.956Z,96853.78
2023-03-07T05:01:52.771Z,96848.25
2023-03-07T05:04:55.473Z,96856.88
2023-03-07T05:07:58.729Z,96854.00
2023-03-07T05:11:01.887Z,96852.84
2023-03-07T05:14:05.365Z,96852.50
2023-03-07T05:17:09.750Z,96855.47
2023-03-07T05:20:13.281Z,96851.41
2023-03-07T05:23:18.090Z,96847.44
2023-03-07T05:26:23.312Z,96852.81
2023-03-07T05:29:26.459Z,96848.03
2023-03-07T05:32:29.121Z,96866.00
2023-03-07T05:35:32.842Z,96857.00
2023-03-07T05:38:36.926Z,96867.47
2023-03-07T05:41:39.546Z,96857.03
2023-03-07T05:44:43.102Z,96847.81
2023-03-07T05:47:45.979Z,96850.31
2023-03-07T05:50:49.387Z,96852.16
2023-03-07T05:53:53.784Z,96857.69
2023-03-07T05:56:57.439Z,96867.34
2023-03-07T06:00:00.280Z,96866.91
2023-03-07T06:03:03.787Z,96865.38
2023-03-07T06:06:07.991Z,96865.72
2023-03-07T06:09:10.904Z,96868.16
2023-03-07T06:12:14.942Z,96868.31
2023-03-07T06:15:17.943Z,96871.59
2023-03-07T06:18:22.559Z,96869.88
2023-03-07T06:21:25.616Z,96857.88
2023-03-07T06:24:28.423Z,96873.63
2023-03-07T06:27:36.281Z,96875.75
2023-03-07T06:30:39.674Z,96877.03
2023-03-07T06:33:43.115Z,96881.03
2023-03-07T06:36:48.764Z,96872.81
2023-03-07T06:39:54.069Z,96868.47
2023-03-07T06:42:56.812Z,96878.06
2023-03-07T06:45:59.756Z,96865.63
2023-03-07T06:49:08.459Z,96875.38
2023-03-07T06:52:11.580Z,96872.00
2023-03-07T06:55:14.316Z,96862.22
2023-03-07T06:58:17.517Z,96867.50
2023-03-07T07:01:23.077Z,96866.81
2023-03-07T07:04:28.248Z,96870.91
2023-03-07T07:07:31.149Z,96876.56
2023-03-07T07:10:34.930Z,96871.03
2023-03-07T07:13:37.666Z,96873.00
2023-03-07T07:16:41.653Z,96869.59
2023-03-07T07:19:44.978Z,96875.88
2023-03-07T07:22:47.953Z,96865.16
2023-03-07T07:25:50.521Z,96875.63
2023-03-07T07:28:53.578Z,96878.63
2023-03-07T07:31:56.519Z,96876.75
2023-03-07T07:34:59.185Z,96894.13
2023-03-07T07:38:02.180Z,96898.47
2023-03-07T07:41:05.196Z,96892.63
2023-03-07T07:44:08.877Z,96892.28
2023-03-07T07:47:18.227Z,96881.94
2023-03-07T07:50:21.980Z,96889.91
2023-03-07T07:53:24.997Z,96884.41
2023-03-07T07:56:27.767Z,96880.78
2023-03-07T07:59:32.006Z,96886.66
2023-03-07T08:02:36.021Z,96881.72
2023-03-07T08:05:44.236Z,96888.41
2023-03-07T08:08:48.314Z,96878.53
2023-03-07T08:11:51.150Z,96884.28
2023-03-07T08:14:53.926Z,96886.13
2023-03-07T08:17:56.761Z,96887.34
2023-03-07T08:21:00.016Z,96895.53
2023-03-07T08:24:03.494Z,96882.44
2023-03-07T08:27:06.352Z,96891.03
2023-03-07T08:30:09.694Z,96895.38
2023-03-07T08:33:12.269Z,96885.69
2023-03-07T08:36:15.124Z,96892.13
2023-03-07T08:39:17.702Z,96894.88
2023-03-07T08:42:20.638Z,96899.97
2023-03-07T08:45:24.226Z,96900.22
2023-03-07T08:48:27.300Z,96897.97
2023-03-07T08:51:29.972Z,96885.69
2023-03-07T08:54:32.798Z,96892.66
2023-03-07T08:57:35.383Z,96881.44
2023-03-07T09:00:39.082Z,96886.66
2023-03-07T09:03:42.916Z,96890.56
2023-03-07T09:06:45.573Z,96882.19
2023-03-07T09:09:48.138Z,96884.47
2023-03-07T09:12:55.341Z,96876.66
2023-03-07T09:15:57.811Z,96878.88
2023-03-07T09:19:00.570Z,96874.88
2023-03-07T09:22:03.552Z,96874.97
2023-03-07T09:25:06.606Z,96871.66
2023-03-07T09:28:09.206Z,96872.13
2023-03-07T09:31:13.958Z,96873.81
2023-03-07T09:34:16.621Z,96870.94
2023-03-07T09:37:19.577Z,96876.72
2023-03-07T09:40:23.914Z,96880.44
2023-03-07T09:43:27.379Z,96870.84
2023-03-07T09:47:22.757Z,96882.69
2023-03-07T09:50:55.961Z,96880.47
2023-03-07T09:54:15.396Z,96869.19
2023-03-07T09:57:31.861Z,96878.19
2023-03-07T10:00:38.304Z,96869.19
2023-03-07T10:03:49.878Z,96867.56
2023-03-07T10:06:58.564Z,96855.66
2023-03-07T10:10:03.111Z,96854.44
2023-03-07T10:13:37.545Z,96841.91
2023-03-07T10:16:44.806Z,96840.50
2023-03-07T10:19:52.618Z,96836.28
2023-03-07T10:23:01.888Z,96838.28
2023-03-07T10:26:16.089Z,96840.75
2023-03-07T10:29:20.376Z,96831.69
2023-03-07T10:32:42.034Z,96817.75
2023-03-07T10:35:50.408Z,96809.88
2023-03-07T10:39:07.242Z,96813.19
2023-03-07T10:42:14.177Z,96824.09
2023-03-07T10:45:17.534Z,96806.34
2023-03-07T10:48:21.375Z,96815.09
2023-03-07T10:52:01.443Z,96813.31
2023-03-07T10:55:38.649Z,96811.25
2023-03-07T10:59:05.951Z,96799.06
2023-03-07T11:02:23.854Z,96799.81
2023-03-07T11:05:34.062Z,96788.09
2023-03-07T11:08:36.920Z,96785.16
2023-03-07T11:11:39.801Z,96784.81
2023-03-07T11:14:49.846Z,96781.09
2023-03-07T11:17:53.048Z,96783.31
2023-03-07T11:20:56.235Z,96775.91
2023-03-07T11:24:17.526Z,96770.44
2023-03-07T11:27:40.425Z,96762.84
2023-03-07T11:30:48.038Z,96762.88
2023-03-07T11:33:59.973Z,96759.06
2023-03-07T11:37:38.334Z,96745.44
2023-03-07T11:40:49.702Z,96750.34
2023-03-07T11:44:13.119Z,96748.84
2023-03-07T11:47:54.746Z,96744.34
2023-03-07T11:50:57.929Z,96741.75
2023-03-07T11:54:04.974Z,96746.81
2023-03-07T11:57:19.357Z,96738.59
2023-03-07T12:00:49.363Z,96729.59
2023-03-07T12:04:20.285Z,96730.88
2023-03-07T12:07:44.412Z,96726.66
2023-03-07T12:11:10.378Z,96730.00
2023-03-07T12:14:31.350Z,96725.66
2023-03-07T12:17:53.008Z,96721.03
2023-03-07T12:21:34.312Z,96718.28
2023-03-07T12:24:55.964Z,96716.44
2023-03-07T12:27:58.607Z,96714.78
2023-03-07T12:31:04.236Z,96704.63
2023-03-07T12:34:09.988Z,96709.50
2023-03-07T12:37:24.198Z,96702.34
2023-03-07T12:40:35.049Z,96702.47
2023-03-07T12:43:51.921Z,96698.28
2023-03-07T12:47:22.743Z,96693.41
2023-03-07T12:50:29.142Z,96689.31
2023-03-07T12:54:04.526Z,96682.84
2023-03-07T12:57:21.367Z,96694.41
2023-03-07T13:00:25.400Z,96678.72
2023-03-07T13:03:41.363Z,96678.91
2023-03-07T13:06:45.267Z,96670.94
2023-03-07T13:09:49.623Z,96673.53
2023-03-07T13:12:53.069Z,96678.66
2023-03-07T13:16:07.043Z,96668.69
2023-03-07T13:19:31.583Z,96665.78
2023-03-07T13:22:37.297Z,96670.75
2023-03-07T13:25:49.089Z,96673.88
2023-03-07T13:28:52.512Z,96670.06
2023-03-07T13:31:55.177Z,96663.84
2023-03-07T13:34:57.925Z,96661.56
2023-03-07T13:38:15.783Z,96659.84
2023-03-07T13:41:45.531Z,96654.94
2023-03-07T13:44:48.198Z,96648.28
2023-03-07T13:47:50.948Z,96654.81
2023-03-07T13:50:56.046Z,96651.72
2023-03-07T13:54:16.960Z,96638.19
2023-03-07T13:57:20.951Z,96636.72
2023-03-07T14:00:32.454Z,96635.94
2023-03-07T14:03:41.117Z,96637.81
2023-03-07T14:06:50.567Z,96631.53
2023-03-07T14:09:56.838Z,96616.16
2023-03-07T14:13:21.538Z,96609.50
2023-03-07T14:16:53.270Z,96612.34
2023-03-07T14:20:17.865Z,96612.78
2023-03-07T14:23:54.092Z,96610.16
2023-03-07T14:26:58.531Z,96604.00
2023-03-07T14:30:01.350Z,96609.50
2023-03-07T14:33:04.168Z,96606.41
2023-03-07T14:36:23.346Z,96597.78
2023-03-07T14:39:33.645Z,96598.81
2023-03-07T14:42:47.179Z,96600.22
2023-03-07T14:45:59.825Z,96597.13
2023-03-07T14:49:41.183Z,96602.84
2023-03-07T14:52:44.908Z,96596.81
2023-03-07T14:55:49.728Z,96591.31
2023-03-07T14:58:58.678Z,96592.44
2023-03-07T15:02:01.417Z,96584.34
2023-03-07T15:05:04.952Z,96581.16
2023-03-07T15:08:23.324Z,96582.25
2023-03-07T15:11:28.789Z,96588.28
2023-03-07T15:14:52.993Z,96588.84
2023-03-07T15:18:06.421Z,96573.25
2023-03-07T15:21:09.679Z,96573.25
2023-03-07T15:24:31.703Z,96573.94
2023-03-07T15:27:34.611Z,96573.63
2023-03-07T15:30:38.584Z,96572.31
2023-03-07T15:33:42.543Z,96578.03
2023-03-07T15:36:45.617Z,96564.22
2023-03-07T15:39:59.105Z,96558.19
2023-03-07T15:43:04.889Z,96564.00
2023-03-07T15:46:17.108Z,96550.41
2023-03-07T15:49:22.824Z,96552.25
2023-03-07T15:52:34.463Z,96544.91
2023-03-07T15:55:38.790Z,96536.66
2023-03-07T15:58:44.283Z,96529.66
2023-03-07T16:01:47.408Z,96523.22
2023-03-07T16:04:50.132Z,96518.53
2023-03-07T16:07:57.677Z,96517.59
2023-03-07T16:11:04.517Z,96520.78
2023-03-07T16:14:30.401Z,96517.38
2023-03-07T16:17:39.864Z,96511.25
2023-03-07T16:20:42.678Z,96502.66
2023-03-07T16:23:45.994Z,96504.78
2023-03-07T16:26:49.031Z,96503.47
2023-03-07T16:29:52.884Z,96502.34
2023-03-07T16:32:55.995Z,96500.19
2023-03-07T16:35:58.763Z,96493.97
2023-03-07T16:39:01.537Z,96495.59
2023-03-07T16:42:04.721Z,96500.44
2023-03-07T16:45:32.755Z,96498.13
2023-03-07T16:48:36.589Z,96497.72
2023-03-07T16:51:40.099Z,96489.88
2023-03-07T16:54:43.779Z,96509.69
2023-03-07T16:57:51.010Z,96505.16
2023-03-07T17:00:54.961Z,96519.13
2023-03-07T17:04:05.737Z,96518.66
2023-03-07T17:07:26.922Z,96518.50
2023-03-07T17:10:29.938Z,96514.00
2023-03-07T17:13:32.988Z,96522.69
2023-03-07T17:16:39.551Z,96528.78
2023-03-07T17:19:42.548Z,96517.94
2023-03-07T17:22:45.562Z,96529.59
2023-03-07T17:25:48.502Z,96538.34
2023-03-07T17:28:51.612Z,96525.25
2023-03-07T17:31:54.406Z,96530.69
2023-03-07T17:34:57.300Z,96533.28
2023-03-07T17:38:00.106Z,96530.69
2023-03-07T17:41:02.968Z,96532.47
2023-03-07T17:44:06.439Z,96535.47
2023-03-07T17:47:09.348Z,96531.50
2023-03-07T17:50:13.158Z,96535.47
2023-03-07T17:53:16.219Z,96540.06
2023-03-07T17:56:19.356Z,96527.66
2023-03-07T17:59:22.535Z,96527.09
2023-03-07T18:02:26.341Z,96534.72
2023-03-07T18:05:29.757Z,96520.75
2023-03-07T18:08:32.933Z,96527.81
2023-03-07T18:11:37.338Z,96534.13
2023-03-07T18:14:40.756Z,96529.22
2023-03-07T18:17:49.093Z,96519.19
2023-03-07T18:21:22.352Z,96529.88
2023-03-07T18:24:27.424Z,96536.09
2023-03-07T18:27:30.338Z,96545.09
2023-03-07T18:30:34.482Z,96538.81
2023-03-07T18:33:38.479Z,96533.03
2023-03-07T18:36:42.220Z,96528.88
2023-03-07T18:39:45.790Z,96531.16
2023-03-07T18:42:49.640Z,96534.72
2023-03-07T18:45:53.880Z,96542.28
2023-03-07T18:48:57.773Z,96547.41
2023-03-07T18:52:00.556Z,96541.56
2023-03-07T18:55:03.618Z,96535.22
2023-03-07T18:58:06.310Z,96529.75
2023-03-07T19:01:21.143Z,96525.94
2023-03-07T19:04:23.982Z,96526.47
2023-03-07T19:07:28.960Z,96524.56
2023-03-07T19:10:32.109Z,96535.81
2023-03-07T19:13:35.572Z,96539.22
2023-03-07T19:16:38.656Z,96517.78
2023-03-07T19:19:41.697Z,96514.09
2023-03-07T19:22:44.980Z,96508.50
2023-03-07T19:25:48.850Z,96525.06
2023-03-07T19:28:53.528Z,96508.50
2023-03-07T19:31:56.687Z,96511.78
2023-03-07T19:34:59.635Z,96515.69
2023-03-07T19:38:02.546Z,96514.50
2023-03-07T19:41:07.330Z,96515.75
2023-03-07T19:44:12.508Z,96524.97
2023-03-07T19:47:15.368Z,96516.31
2023-03-07T19:50:19.025Z,96524.91
2023-03-07T19:53:24.475Z,96536.97
2023-03-07T19:56:30.750Z,96528.84
2023-03-07T19:59:33.592Z,96517.75
2023-03-07T20:02:38.313Z,96519.94
2023-03-07T20:05:43.139Z,96523.13
2023-03-07T20:08:48.583Z,96526.31
2023-03-07T20:11:51.329Z,96520.34
2023-03-07T20:14:54.179Z,96521.91
2023-03-07T20:17:57.540Z,96521.47
2023-03-07T20:21:05.760Z,96527.84
2023-03-07T20:24:09.114Z,96524.44
2023-03-07T20:27:11.896Z,96519.31
2023-03-07T20:30:15.554Z,96533.97
2023-03-07T20:33:18.365Z,96522.41
2023-03-07T20:36:26.678Z,96527.84
2023-03-07T20:39:29.706Z,96527.88
2023-03-07T20:42:32.920Z,96522.00
2023-03-07T20:45:35.789Z,96527.25
2023-03-07T20:48:39.120Z,96532.63
2023-03-07T20:51:42.445Z,96529.06
2023-03-07T20:54:45.707Z,96543.06
2023-03-07T20:57:48.740Z,96539.97
2023-03-07T21:00:53.250Z,96551.47
2023-03-07T21:03:56.651Z,96549.19
2023-03-07T21:06:59.526Z,96546.25
2023-03-07T21:10:02.246Z,96542.88
2023-03-07T21:13:05.099Z,96542.31
2023-03-07T21:16:19.832Z,96544.75
2023-03-07T21:19:22.539Z,96537.38
2023-03-07T21:22:25.244Z,96549.19
2023-03-07T21:25:28.033Z,96537.47
2023-03-07T21:28:35.277Z,96534.44
2023-03-07T21:31:39.027Z,96527.88
2023-03-07T21:34:41.711Z,96534.78
2023-03-07T21:37:44.422Z,96528.25
2023-03-07T21:40:47.474Z,96534.84
2023-03-07T21:43:50.168Z,96533.22
2023-03-07T21:46:53.085Z,96529.41
2023-03-07T21:49:56.139Z,96530.81
2023-03-07T21:52:58.977Z,96534.22
2023-03-07T21:56:28.264Z,96539.81
2023-03-07T21:59:33.659Z,96539.69
2023-03-07T22:02:37.377Z,96534.09
2023-03-07T22:05:40.605Z,96527.66
2023-03-07T22:08:43.216Z,96530.09
2023-03-07T22:11:45.862Z,96521.63
2023-03-07T22:14:48.790Z,96522.00
2023-03-07T22:17:51.525Z,96519.72
2023-03-07T22:20:55.401Z,96522.78
2023-03-07T22:24:00.127Z,96522.53
2023-03-07T22:27:02.915Z,96521.44
2023-03-07T22:30:06.804Z,96531.22
2023-03-07T22:33:09.532Z,96531.81
2023-03-07T22:36:13.659Z,96529.53
2023-03-07T22:39:16.281Z,96525.25
2023-03-07T22:42:18.950Z,96534.47
2023-03-07T22:45:21.654Z,96537.44
2023-03-07T22:48:24.421Z,96545.25
2023-03-07T22:51:27.274Z,96532.31
2023-03-07T22:54:30.019Z,96529.63
2023-03-07T22:57:32.698Z,96525.09
2023-03-07T23:00:35.416Z,96523.22
2023-03-07T23:03:38.099Z,96527.28
2023-03-07T23:06:40.778Z,96523.44
2023-03-07T23:09:43.433Z,96521.25
2023-03-07T23:12:49.935Z,96536.22
2023-03-07T23:15:52.567Z,96533.09
2023-03-07T23:18:57.105Z,96528.09
2023-03-07T23:21:59.704Z,96538.22
2023-03-07T23:25:02.365Z,96534.56
2023-03-07T23:28:05.066Z,96554.31
2023-03-07T23:31:16.695Z,96550.50
2023-03-07T23:34:20.625Z,96552.81
2023-03-07T23:37:23.176Z,96554.03
2023-03-07T23:40:25.805Z,96560.31
2023-03-07T23:43:28.535Z,96550.19
2023-03-07T23:46:32.131Z,96551.25
2023-03-07T23:49:34.789Z,96551.56
2023-03-07T23:52:37.396Z,96556.91
2023-03-07T23:55:43.325Z,96551.03
2023-03-07T23:58:50.006Z,96566.22
